Impacts TAF Board INFO
FOR SITUATIONAL AWARENESS. NOT TO BE USED FOR FLIGHT PLANNING PURPOSES.
IDs:

KIAH - Houston/Bush Intl, TX, US

Issued at 2320 UTC 17 Aug 2018
Updated at 0126 UTC 18 Aug 2018
Potential Impact None Slight Moderate High
Time0053Z 18/02Z 18/03Z 18/04Z 18/05Z 18/06Z 18/07Z 18/08Z 18/09Z 18/10Z 18/11Z 18/12Z 18/13Z 18/14Z>>
Type OBS PRVL PRVL PRVL PRVL PRVL PRVL PRVL PRVL PRVL PRVL PRVL PRVL PRVL
VIS 10 >6 >6 >6 >6 >6 >6 >6 >6 >6 >6 >6 >6 >6
CIG -- -- -- -- -- -- -- -- -- -- -- -- -- --
Cover FEW SCT SCT SCT SCT SCT SCT SCT SCT SCT SCT SCT SCT SCT
FltCat VFR VFR VFR VFR VFR VFR VFR VFR VFR VFR VFR VFR VFR VFR
WX -- -- -- -- -- -- -- -- -- -- -- -- -- --
WDir 160 180 180 180 180 180 180 180 180 180 180 180 180 180
WSpd 11 5 5 5 5 5 5 5 5 5 5 5 5 5
WGst -- -- -- -- -- -- -- -- -- -- -- -- -- --

Raw TAF
KIAH 172320Z 1800/1906 15012KT P6SM SCT060
  FM180200 18005KT P6SM FEW020 SCT250
  FM181500 22006KT P6SM FEW025 SCT250


Raw METAR
KIAH 180053Z 16011KT 10SM FEW060 32/23 A3000 RMK AO2 SLP158 T03170233
KIAH 172353Z 15014KT 10SM FEW060 33/24 A2999 RMK AO2 SLP154 T03280239 10361 20328 55005
KIAH 172253Z 15016KT 10SM FEW060 34/24 A2999 RMK AO2 SLP153 T03390244

METAR Board
Radar Display
Forecast Discussion

FOR SITUATIONAL AWARENESS. NOT TO BE USED FOR FLIGHT PLANNING PURPOSES.